createdAt,value
2023-03-13T00:00:21.525Z,0
2023-03-13T00:01:21.559Z,0
2023-03-13T00:02:21.818Z,0
2023-03-13T00:03:21.644Z,0
2023-03-13T00:04:24.285Z,0
2023-03-13T00:05:21.844Z,0
2023-03-13T00:06:21.556Z,0
2023-03-13T00:07:21.497Z,0
2023-03-13T00:08:21.440Z,0
2023-03-13T00:09:21.501Z,0
2023-03-13T00:10:24.582Z,0
2023-03-13T00:11:21.668Z,0
2023-03-13T00:12:21.557Z,0
2023-03-13T00:13:21.500Z,0
2023-03-13T00:14:21.487Z,0
2023-03-13T00:15:24.544Z,0
2023-03-13T00:16:22.260Z,0
2023-03-13T00:17:21.512Z,0
2023-03-13T00:18:21.383Z,0
2023-03-13T00:19:21.637Z,0
2023-03-13T00:20:21.486Z,0
2023-03-13T00:21:24.439Z,0
2023-03-13T00:22:21.556Z,0
2023-03-13T00:23:21.378Z,0
2023-03-13T00:24:21.863Z,0
2023-03-13T00:25:21.544Z,0
2023-03-13T00:26:24.374Z,0
2023-03-13T00:27:21.403Z,0
2023-03-13T00:28:21.450Z,0
2023-03-13T00:29:21.438Z,0
2023-03-13T00:30:21.553Z,0
2023-03-13T00:31:22.552Z,0
2023-03-13T00:32:24.790Z,0
2023-03-13T00:33:21.576Z,0
2023-03-13T00:34:21.547Z,0
2023-03-13T00:35:21.842Z,0
2023-03-13T00:36:21.664Z,0
2023-03-13T00:37:24.396Z,0
2023-03-13T00:38:21.596Z,0
2023-03-13T00:39:21.382Z,0
2023-03-13T00:40:21.546Z,0
2023-03-13T00:41:21.554Z,0
2023-03-13T00:42:24.498Z,0
2023-03-13T00:43:24.666Z,0
2023-03-13T00:44:21.593Z,0
2023-03-13T00:45:21.577Z,0
2023-03-13T00:46:21.833Z,0
2023-03-13T00:47:21.465Z,0
2023-03-13T00:48:24.486Z,0
2023-03-13T00:49:21.406Z,0
2023-03-13T00:50:21.392Z,0
2023-03-13T00:51:21.742Z,0
2023-03-13T00:52:21.587Z,0
2023-03-13T00:53:22.682Z,0
2023-03-13T00:54:21.626Z,0
2023-03-13T00:55:21.476Z,0
2023-03-13T00:56:21.605Z,0
2023-03-13T00:57:21.574Z,0
2023-03-13T00:58:21.681Z,0
2023-03-13T00:59:24.550Z,0
2023-03-13T01:00:21.620Z,0
2023-03-13T01:01:21.594Z,0
2023-03-13T01:02:22.547Z,0
2023-03-13T01:03:22.595Z,0
2023-03-13T01:04:22.719Z,0
2023-03-13T01:05:21.597Z,0
2023-03-13T01:06:21.632Z,0
2023-03-13T01:07:21.639Z,0
2023-03-13T01:08:21.629Z,0
2023-03-13T01:09:21.612Z,0
2023-03-13T01:10:21.625Z,0
2023-03-13T01:11:21.599Z,0
2023-03-13T01:12:21.440Z,0
2023-03-13T01:13:21.739Z,0
2023-03-13T01:14:21.633Z,0
2023-03-13T01:15:24.652Z,0
2023-03-13T01:16:22.035Z,0
2023-03-13T01:17:21.594Z,0
2023-03-13T01:18:21.500Z,0
2023-03-13T01:19:22.657Z,0
2023-03-13T01:20:21.724Z,0
2023-03-13T01:21:21.644Z,0
2023-03-13T01:22:21.602Z,0
2023-03-13T01:23:21.722Z,0
2023-03-13T01:24:21.614Z,0
2023-03-13T01:25:21.682Z,0
2023-03-13T01:26:21.846Z,0
2023-03-13T01:27:21.619Z,0
2023-03-13T01:28:21.654Z,0
2023-03-13T01:29:21.628Z,0
2023-03-13T01:30:21.635Z,0
2023-03-13T01:31:24.796Z,0
2023-03-13T01:32:21.842Z,0
2023-03-13T01:33:21.692Z,0
2023-03-13T01:34:21.643Z,0
2023-03-13T01:35:21.749Z,0
2023-03-13T01:36:21.694Z,0
2023-03-13T01:37:21.650Z,0
2023-03-13T01:38:21.702Z,0
2023-03-13T01:39:21.683Z,0
2023-03-13T01:40:21.657Z,0
2023-03-13T01:41:21.658Z,0
2023-03-13T01:42:24.478Z,0
2023-03-13T01:43:37.570Z,0
2023-03-13T01:44:21.610Z,0
2023-03-13T01:45:21.628Z,0
2023-03-13T01:46:21.798Z,0
2023-03-13T01:47:24.544Z,0
2023-03-13T01:48:21.502Z,0
2023-03-13T01:49:21.682Z,0
2023-03-13T01:50:21.651Z,0
2023-03-13T01:51:21.659Z,0
2023-03-13T01:52:21.685Z,0
2023-03-13T01:53:24.586Z,0
2023-03-13T01:54:21.700Z,0
2023-03-13T01:55:21.737Z,0
2023-03-13T01:56:21.675Z,0
2023-03-13T01:57:21.713Z,0
2023-03-13T01:58:24.819Z,0
2023-03-13T01:59:21.537Z,0
2023-03-13T02:00:21.665Z,0
2023-03-13T02:01:21.664Z,0
2023-03-13T02:02:21.821Z,0
2023-03-13T02:03:22.070Z,0
2023-03-13T02:04:24.739Z,0
2023-03-13T02:05:21.676Z,0
2023-03-13T02:06:21.675Z,0
2023-03-13T02:07:21.683Z,0
2023-03-13T02:08:21.666Z,0
2023-03-13T02:09:24.727Z,0
2023-03-13T02:10:21.583Z,0
2023-03-13T02:11:21.761Z,0
2023-03-13T02:12:21.714Z,0
2023-03-13T02:13:21.565Z,0
2023-03-13T02:14:24.465Z,0
2023-03-13T02:15:24.768Z,0
2023-03-13T02:16:22.172Z,0
2023-03-13T02:17:22.167Z,0
2023-03-13T02:18:21.519Z,0
2023-03-13T02:19:21.761Z,0
2023-03-13T02:20:22.764Z,0
2023-03-13T02:21:21.684Z,0
2023-03-13T02:22:21.700Z,0
2023-03-13T02:23:24.429Z,0
2023-03-13T02:24:21.734Z,0
2023-03-13T02:25:21.562Z,0
2023-03-13T02:26:24.691Z,0
2023-03-13T02:27:21.743Z,0
2023-03-13T02:28:21.763Z,0
2023-03-13T02:29:21.752Z,0
2023-03-13T02:30:21.689Z,0
2023-03-13T02:31:25.118Z,0
2023-03-13T02:32:21.737Z,0
2023-03-13T02:33:21.558Z,0
2023-03-13T02:34:21.586Z,0
2023-03-13T02:35:21.878Z,0
2023-03-13T02:36:21.898Z,0
2023-03-13T02:37:30.576Z,0
2023-03-13T02:38:21.695Z,0
2023-03-13T02:39:21.766Z,0
2023-03-13T02:40:21.566Z,0
2023-03-13T02:41:21.702Z,0
2023-03-13T02:42:24.714Z,0
2023-03-13T02:43:21.747Z,0
2023-03-13T02:44:21.750Z,0
2023-03-13T02:45:21.811Z,0
2023-03-13T02:46:22.343Z,0
2023-03-13T02:47:21.754Z,0
2023-03-13T02:48:24.290Z,0
2023-03-13T02:49:21.866Z,0
2023-03-13T02:50:21.774Z,0
2023-03-13T02:51:21.732Z,0
2023-03-13T02:52:21.734Z,0
2023-03-13T02:53:24.494Z,0
2023-03-13T02:54:21.590Z,0
2023-03-13T02:55:21.597Z,0
2023-03-13T02:56:21.748Z,0
2023-03-13T02:57:21.747Z,0
2023-03-13T02:58:21.880Z,0
2023-03-13T02:59:24.910Z,0
2023-03-13T03:00:21.807Z,0
2023-03-13T03:01:22.246Z,0
2023-03-13T03:02:21.763Z,0
2023-03-13T03:03:21.767Z,0
2023-03-13T03:04:25.497Z,0
2023-03-13T03:05:21.818Z,0
2023-03-13T03:06:21.767Z,0
2023-03-13T03:07:21.662Z,0
2023-03-13T03:08:21.859Z,0
2023-03-13T03:09:21.819Z,0
2023-03-13T03:10:24.594Z,0
2023-03-13T03:11:21.799Z,0
2023-03-13T03:12:21.791Z,0
2023-03-13T03:13:21.747Z,0
2023-03-13T03:14:21.976Z,0
2023-03-13T03:15:24.619Z,0
2023-03-13T03:16:22.314Z,0
2023-03-13T03:17:21.784Z,0
2023-03-13T03:18:21.780Z,0
2023-03-13T03:19:21.779Z,0
2023-03-13T03:20:22.736Z,0
2023-03-13T03:21:21.632Z,0
2023-03-13T03:22:21.879Z,0
2023-03-13T03:23:21.686Z,0
2023-03-13T03:24:21.798Z,0
2023-03-13T03:25:21.837Z,0
2023-03-13T03:26:24.403Z,0
2023-03-13T03:27:21.702Z,0
2023-03-13T03:28:21.775Z,0
2023-03-13T03:29:21.818Z,0
2023-03-13T03:30:21.842Z,0
2023-03-13T03:31:24.966Z,0
2023-03-13T03:32:21.850Z,0
2023-03-13T03:33:21.929Z,0
2023-03-13T03:34:21.829Z,0
2023-03-13T03:35:21.833Z,0
2023-03-13T03:36:21.912Z,0
2023-03-13T03:37:21.800Z,0
2023-03-13T03:38:21.823Z,0
2023-03-13T03:39:21.872Z,0
2023-03-13T03:40:21.848Z,0
2023-03-13T03:41:21.831Z,0
2023-03-13T03:42:24.937Z,0
2023-03-13T03:43:21.890Z,0
2023-03-13T03:44:21.806Z,0
2023-03-13T03:45:21.835Z,0
2023-03-13T03:46:22.334Z,0
2023-03-13T03:47:22.117Z,0
2023-03-13T03:48:21.843Z,0
2023-03-13T03:49:21.830Z,0
2023-03-13T03:50:21.873Z,0
2023-03-13T03:51:21.844Z,0
2023-03-13T03:52:21.863Z,0
2023-03-13T03:53:24.754Z,0
2023-03-13T03:54:21.815Z,0
2023-03-13T03:55:21.940Z,0
2023-03-13T03:56:21.855Z,0
2023-03-13T03:57:21.827Z,0
2023-03-13T03:58:24.920Z,0
2023-03-13T03:59:21.802Z,0
2023-03-13T04:00:21.952Z,0
2023-03-13T04:01:21.830Z,0
2023-03-13T04:02:22.421Z,0
2023-03-13T04:03:22.251Z,0
2023-03-13T04:04:21.850Z,0
2023-03-13T04:05:21.889Z,0
2023-03-13T04:06:21.828Z,0
2023-03-13T04:07:21.897Z,0
2023-03-13T04:08:21.888Z,0
2023-03-13T04:09:24.900Z,0
2023-03-13T04:10:21.907Z,0
2023-03-13T04:11:21.866Z,0
2023-03-13T04:12:22.004Z,0
2023-03-13T04:13:21.843Z,0
2023-03-13T04:14:24.923Z,0
2023-03-13T04:15:21.871Z,0
2023-03-13T04:16:22.245Z,0
2023-03-13T04:17:21.876Z,0
2023-03-13T04:18:21.980Z,0
2023-03-13T04:19:21.871Z,0
2023-03-13T04:20:25.086Z,0
2023-03-13T04:21:21.903Z,0
2023-03-13T04:22:21.873Z,0
2023-03-13T04:23:21.866Z,0
2023-03-13T04:24:21.886Z,0
2023-03-13T04:25:24.688Z,0
2023-03-13T04:26:21.856Z,0
2023-03-13T04:27:21.972Z,0
2023-03-13T04:28:21.921Z,0
2023-03-13T04:29:21.844Z,0
2023-03-13T04:30:25.438Z,0
2023-03-13T04:31:23.289Z,0
2023-03-13T04:32:21.960Z,0
2023-03-13T04:33:21.869Z,0
2023-03-13T04:34:21.911Z,0
2023-03-13T04:35:22.391Z,0
2023-03-13T04:36:25.380Z,0
2023-03-13T04:37:21.888Z,0
2023-03-13T04:38:21.857Z,0
2023-03-13T04:39:21.900Z,0
2023-03-13T04:40:21.951Z,0
2023-03-13T04:41:21.911Z,0
2023-03-13T04:42:24.926Z,0
2023-03-13T04:43:21.929Z,0
2023-03-13T04:44:21.906Z,0
2023-03-13T04:45:21.913Z,0
2023-03-13T04:46:22.289Z,0
2023-03-13T04:47:22.973Z,0
2023-03-13T04:48:21.881Z,0
2023-03-13T04:49:21.990Z,0
2023-03-13T04:50:21.954Z,0
2023-03-13T04:51:22.005Z,0
2023-03-13T04:52:21.947Z,0
2023-03-13T04:53:24.668Z,0
2023-03-13T04:54:21.912Z,0
2023-03-13T04:55:21.933Z,0
2023-03-13T04:56:36.169Z,0
2023-03-13T04:57:22.003Z,0
2023-03-13T04:58:24.903Z,0
2023-03-13T04:59:21.963Z,0
2023-03-13T05:00:22.052Z,0
2023-03-13T05:01:22.193Z,0
2023-03-13T05:02:21.942Z,0
2023-03-13T05:03:22.026Z,0
2023-03-13T05:04:24.950Z,0
2023-03-13T05:05:22.528Z,0
2023-03-13T05:06:22.075Z,0
2023-03-13T05:07:21.964Z,0
2023-03-13T05:08:21.960Z,0
2023-03-13T05:09:24.947Z,0
2023-03-13T05:10:22.029Z,0
2023-03-13T05:11:21.960Z,0
2023-03-13T05:12:21.954Z,0
2023-03-13T05:13:21.999Z,0
2023-03-13T05:14:21.973Z,0
2023-03-13T05:15:23.649Z,0
2023-03-13T05:16:22.497Z,0
2023-03-13T05:17:21.946Z,0
2023-03-13T05:18:21.973Z,0
2023-03-13T05:19:21.979Z,0
2023-03-13T05:20:24.923Z,0
2023-03-13T05:21:21.977Z,0
2023-03-13T05:22:22.018Z,0
2023-03-13T05:23:21.989Z,0
2023-03-13T05:24:24.954Z,0
2023-03-13T05:25:21.938Z,0
2023-03-13T05:26:25.029Z,0
2023-03-13T05:27:21.974Z,0
2023-03-13T05:28:21.973Z,0
2023-03-13T05:29:23.024Z,0
2023-03-13T05:30:22.004Z,0
2023-03-13T05:31:25.208Z,0
2023-03-13T05:32:22.047Z,0
2023-03-13T05:33:22.205Z,0
2023-03-13T05:34:22.006Z,0
2023-03-13T05:35:22.383Z,0
2023-03-13T05:36:22.835Z,0
2023-03-13T05:37:25.207Z,0
2023-03-13T05:38:22.000Z,0
2023-03-13T05:39:22.031Z,0
2023-03-13T05:40:22.057Z,0
2023-03-13T05:41:21.999Z,0
2023-03-13T05:42:24.999Z,0
2023-03-13T05:43:21.970Z,0
2023-03-13T05:44:22.012Z,0
2023-03-13T05:45:22.065Z,0
2023-03-13T05:46:22.336Z,0
2023-03-13T05:47:24.803Z,0
2023-03-13T05:48:22.025Z,0
2023-03-13T05:49:22.128Z,0
2023-03-13T05:50:22.034Z,0
2023-03-13T05:51:22.029Z,0
2023-03-13T05:52:22.039Z,0
2023-03-13T05:53:25.104Z,0
2023-03-13T05:54:24.641Z,0
2023-03-13T05:55:22.006Z,0
2023-03-13T05:56:22.119Z,0
2023-03-13T05:57:22.008Z,0
2023-03-13T05:58:24.793Z,0
2023-03-13T05:59:22.023Z,0
2023-03-13T06:00:22.022Z,0
2023-03-13T06:01:22.044Z,0
2023-03-13T06:02:22.001Z,0
2023-03-13T06:03:23.802Z,0
2023-03-13T06:04:22.987Z,0
2023-03-13T06:05:22.076Z,0
2023-03-13T06:06:22.091Z,0
2023-03-13T06:07:22.044Z,0
2023-03-13T06:08:24.063Z,0
2023-03-13T06:09:24.824Z,0
2023-03-13T06:10:22.052Z,0
2023-03-13T06:11:22.043Z,0
2023-03-13T06:12:22.025Z,0
2023-03-13T06:13:29.256Z,0
2023-03-13T06:14:22.015Z,0
2023-03-13T06:15:22.021Z,0
2023-03-13T06:16:22.458Z,0
2023-03-13T06:17:22.089Z,0
2023-03-13T06:18:22.007Z,0
2023-03-13T06:19:22.101Z,0
2023-03-13T06:20:24.937Z,0
2023-03-13T06:21:22.101Z,0
2023-03-13T06:22:23.093Z,0
2023-03-13T06:23:22.102Z,5
2023-03-13T06:24:22.019Z,0
2023-03-13T06:25:25.117Z,0
2023-03-13T06:26:22.201Z,0
2023-03-13T06:27:22.043Z,0
2023-03-13T06:28:22.073Z,0
2023-03-13T06:29:22.021Z,0
2023-03-13T06:30:22.056Z,0
2023-03-13T06:31:22.528Z,0
2023-03-13T06:32:22.703Z,0
2023-03-13T06:33:22.520Z,0
2023-03-13T06:34:22.052Z,0
2023-03-13T06:35:22.096Z,0
2023-03-13T06:36:25.528Z,0
2023-03-13T06:37:22.105Z,0
2023-03-13T06:38:22.062Z,0
2023-03-13T06:39:22.043Z,0
2023-03-13T06:40:22.121Z,0
2023-03-13T06:41:25.035Z,0
2023-03-13T06:42:26.064Z,0
2023-03-13T06:43:22.127Z,0
2023-03-13T06:44:22.150Z,0
2023-03-13T06:45:22.147Z,0
2023-03-13T06:46:23.074Z,0
2023-03-13T06:47:27.812Z,0
2023-03-13T06:48:22.087Z,0
2023-03-13T06:49:22.096Z,0
2023-03-13T06:50:22.090Z,0
2023-03-13T06:51:22.157Z,0
2023-03-13T06:52:45.994Z,0
2023-03-13T06:53:22.171Z,0
2023-03-13T06:54:22.098Z,0
2023-03-13T06:55:22.187Z,0
2023-03-13T06:56:22.139Z,0
2023-03-13T06:57:22.125Z,0
2023-03-13T06:58:39.939Z,0
2023-03-13T06:59:22.159Z,0
2023-03-13T07:00:22.128Z,0
2023-03-13T07:01:22.581Z,0
2023-03-13T07:02:22.081Z,0
2023-03-13T07:03:24.905Z,0
2023-03-13T07:04:22.681Z,0
2023-03-13T07:05:22.320Z,0
2023-03-13T07:06:22.181Z,0
2023-03-13T07:07:39.205Z,0
2023-03-13T07:08:22.077Z,0
2023-03-13T07:09:25.188Z,0
2023-03-13T07:10:22.596Z,0
2023-03-13T07:11:22.249Z,0
2023-03-13T07:12:22.104Z,0
2023-03-13T07:13:22.226Z,0
2023-03-13T07:14:26.726Z,0
2023-03-13T07:15:22.196Z,0
2023-03-13T07:16:22.776Z,0
2023-03-13T07:17:22.524Z,5
2023-03-13T07:18:22.223Z,0
2023-03-13T07:19:22.311Z,0
2023-03-13T07:20:28.044Z,0
2023-03-13T07:21:22.191Z,5
2023-03-13T07:22:22.175Z,5
2023-03-13T07:23:22.206Z,5
2023-03-13T07:24:22.463Z,5
2023-03-13T07:25:25.053Z,5
2023-03-13T07:26:22.471Z,5
2023-03-13T07:27:22.433Z,5
2023-03-13T07:28:22.143Z,5
2023-03-13T07:29:22.262Z,5
2023-03-13T07:30:22.194Z,5
2023-03-13T07:31:26.163Z,5
2023-03-13T07:32:22.425Z,5
2023-03-13T07:33:22.166Z,5
2023-03-13T07:34:22.212Z,5
2023-03-13T07:35:22.189Z,5
2023-03-13T07:36:25.727Z,5
2023-03-13T07:37:22.135Z,5
2023-03-13T07:38:22.302Z,5
2023-03-13T07:39:22.154Z,5
2023-03-13T07:40:22.230Z,5
2023-03-13T07:41:22.197Z,5
2023-03-13T07:42:25.113Z,5
2023-03-13T07:43:22.199Z,5
2023-03-13T07:44:22.212Z,5
2023-03-13T07:45:22.749Z,5
2023-03-13T07:46:22.844Z,5
2023-03-13T07:47:24.987Z,5
2023-03-13T07:48:22.177Z,5
2023-03-13T07:49:22.617Z,5
2023-03-13T07:50:22.449Z,5
2023-03-13T07:51:42.356Z,5
2023-03-13T07:52:22.215Z,5
2023-03-13T07:53:28.618Z,5
2023-03-13T07:54:22.141Z,5
2023-03-13T07:55:22.198Z,5
2023-03-13T07:56:23.210Z,5
2023-03-13T07:57:22.698Z,5
2023-03-13T07:58:25.411Z,5
2023-03-13T07:59:22.224Z,5
2023-03-13T08:00:22.564Z,5
2023-03-13T08:01:24.296Z,5
2023-03-13T08:02:22.621Z,5
2023-03-13T08:03:22.605Z,5
2023-03-13T08:04:25.013Z,5
2023-03-13T08:05:22.175Z,5
2023-03-13T08:06:22.239Z,5
2023-03-13T08:07:22.246Z,5
2023-03-13T08:08:22.445Z,5
2023-03-13T08:09:25.631Z,5
2023-03-13T08:10:22.579Z,5
2023-03-13T08:11:22.259Z,5
2023-03-13T08:12:22.951Z,5
2023-03-13T08:13:22.190Z,5
2023-03-13T08:14:25.714Z,5
2023-03-13T08:15:22.192Z,5
2023-03-13T08:16:22.518Z,5
2023-03-13T08:17:22.299Z,5
2023-03-13T08:18:22.259Z,5
2023-03-13T08:19:22.254Z,5
2023-03-13T08:20:25.012Z,5
2023-03-13T08:21:22.237Z,5
2023-03-13T08:22:22.251Z,5
2023-03-13T08:23:22.217Z,5
2023-03-13T08:24:22.328Z,5
2023-03-13T08:25:23.362Z,5
2023-03-13T08:26:22.300Z,5
2023-03-13T08:27:22.415Z,5
2023-03-13T08:28:22.243Z,5
2023-03-13T08:29:22.207Z,5
2023-03-13T08:30:22.257Z,5
2023-03-13T08:31:23.096Z,5
2023-03-13T08:32:22.399Z,5
2023-03-13T08:33:22.286Z,5
2023-03-13T08:34:22.292Z,5
2023-03-13T08:35:22.288Z,5
2023-03-13T08:36:25.248Z,5
2023-03-13T08:37:22.267Z,5
2023-03-13T08:38:22.236Z,5
2023-03-13T08:39:22.256Z,5
2023-03-13T08:40:22.273Z,5
2023-03-13T08:41:22.273Z,5
2023-03-13T08:42:22.383Z,5
2023-03-13T08:43:22.284Z,5
2023-03-13T08:44:22.297Z,5
2023-03-13T08:45:22.287Z,5
2023-03-13T08:46:25.506Z,5
2023-03-13T08:47:22.398Z,5
2023-03-13T08:48:22.268Z,5
2023-03-13T08:49:22.563Z,10
2023-03-13T08:50:22.316Z,10
2023-03-13T08:51:22.437Z,10
2023-03-13T08:52:25.404Z,10
2023-03-13T08:53:22.274Z,15
2023-03-13T08:54:22.343Z,15
2023-03-13T08:55:22.345Z,15
2023-03-13T08:56:22.318Z,15
2023-03-13T08:57:22.334Z,15
2023-03-13T08:58:22.291Z,15
2023-03-13T08:59:22.374Z,15
2023-03-13T09:00:22.416Z,15
2023-03-13T09:01:22.336Z,15
2023-03-13T09:02:22.687Z,15
2023-03-13T09:03:25.293Z,15
2023-03-13T09:04:22.428Z,15
2023-03-13T09:05:22.383Z,15
2023-03-13T09:06:22.328Z,10
2023-03-13T09:07:22.361Z,10
2023-03-13T09:08:25.076Z,15
2023-03-13T09:09:27.072Z,15
2023-03-13T09:10:22.283Z,20
2023-03-13T09:11:22.400Z,20
2023-03-13T09:12:38.840Z,20
2023-03-13T09:13:22.294Z,20
2023-03-13T09:14:25.168Z,20
2023-03-13T09:15:22.316Z,20
2023-03-13T09:16:23.109Z,20
2023-03-13T09:17:22.373Z,20
2023-03-13T09:18:22.581Z,20
2023-03-13T09:19:25.356Z,20
2023-03-13T09:20:22.343Z,20
2023-03-13T09:21:22.255Z,20
2023-03-13T09:22:22.320Z,20
2023-03-13T09:23:22.387Z,20
2023-03-13T09:24:22.414Z,20
2023-03-13T09:25:25.503Z,20
2023-03-13T09:26:25.224Z,20
2023-03-13T09:27:22.344Z,20
2023-03-13T09:28:22.454Z,20
2023-03-13T09:29:22.336Z,20
2023-03-13T09:30:25.594Z,20
2023-03-13T09:31:23.075Z,20
2023-03-13T09:32:22.326Z,20
2023-03-13T09:33:22.358Z,20
2023-03-13T09:34:22.354Z,20
2023-03-13T09:35:22.338Z,20
2023-03-13T09:36:26.515Z,20
2023-03-13T09:37:22.379Z,20
2023-03-13T09:38:22.236Z,20
2023-03-13T09:39:22.379Z,25
2023-03-13T09:40:22.468Z,25
2023-03-13T09:41:25.145Z,25
2023-03-13T09:42:22.461Z,30
2023-03-13T09:43:22.375Z,35
2023-03-13T09:44:22.538Z,45
2023-03-13T09:45:22.445Z,30
2023-03-13T09:46:22.661Z,25
2023-03-13T09:47:25.417Z,25
2023-03-13T09:48:22.395Z,25
2023-03-13T09:49:25.038Z,25
2023-03-13T09:50:22.441Z,20
2023-03-13T09:51:22.229Z,20
2023-03-13T09:52:25.183Z,20
2023-03-13T09:53:22.465Z,20
2023-03-13T09:54:22.035Z,15
2023-03-13T09:55:22.417Z,15
2023-03-13T09:56:22.366Z,15
2023-03-13T09:57:22.413Z,10
2023-03-13T09:58:25.320Z,10
2023-03-13T09:59:22.213Z,10
2023-03-13T10:00:22.541Z,10
2023-03-13T10:01:22.512Z,10
2023-03-13T10:02:22.266Z,10
2023-03-13T10:03:25.785Z,10
2023-03-13T10:04:22.760Z,10
2023-03-13T10:05:22.473Z,10
2023-03-13T10:06:22.387Z,10
2023-03-13T10:07:22.405Z,10
2023-03-13T10:08:22.527Z,10
2023-03-13T10:09:23.434Z,10
2023-03-13T10:10:23.347Z,10
2023-03-13T10:11:22.409Z,10
2023-03-13T10:12:22.283Z,10
2023-03-13T10:13:22.411Z,10
2023-03-13T10:14:25.400Z,10
2023-03-13T10:15:22.429Z,10
2023-03-13T10:16:25.405Z,5
2023-03-13T10:17:22.442Z,5
2023-03-13T10:18:22.521Z,5
2023-03-13T10:19:22.498Z,5
2023-03-13T10:20:25.658Z,5
2023-03-13T10:21:22.474Z,5
2023-03-13T10:22:22.449Z,5
2023-03-13T10:23:22.520Z,5
2023-03-13T10:24:22.505Z,5
2023-03-13T10:25:25.186Z,5
2023-03-13T10:26:22.451Z,5
2023-03-13T10:27:22.446Z,5
2023-03-13T10:28:22.506Z,5
2023-03-13T10:29:22.436Z,5
2023-03-13T10:30:22.533Z,5
2023-03-13T10:31:25.515Z,5
2023-03-13T10:32:22.633Z,5
2023-03-13T10:33:22.435Z,5
2023-03-13T10:34:22.494Z,5
2023-03-13T10:35:22.490Z,5
2023-03-13T10:36:23.696Z,5
2023-03-13T10:37:22.458Z,5
2023-03-13T10:38:25.291Z,5
2023-03-13T10:39:22.490Z,5
2023-03-13T10:40:22.565Z,5
2023-03-13T10:41:25.503Z,10
2023-03-13T10:42:22.695Z,10
2023-03-13T10:43:24.762Z,10
2023-03-13T10:44:22.536Z,10
2023-03-13T10:45:25.062Z,10
2023-03-13T10:46:22.684Z,10
2023-03-13T10:47:25.668Z,5
2023-03-13T10:48:22.507Z,5
2023-03-13T10:49:22.490Z,5
2023-03-13T10:50:22.334Z,10
2023-03-13T10:51:22.473Z,10
2023-03-13T10:52:23.557Z,10
2023-03-13T10:53:22.491Z,10
2023-03-13T10:54:22.561Z,10
2023-03-13T10:55:22.508Z,5
2023-03-13T10:56:22.580Z,5
2023-03-13T10:57:22.521Z,5
2023-03-13T10:58:22.513Z,5
2023-03-13T10:59:22.512Z,5
2023-03-13T11:00:22.605Z,10
2023-03-13T11:01:22.543Z,10
2023-03-13T11:02:22.713Z,10
2023-03-13T11:03:26.187Z,10
2023-03-13T11:04:22.490Z,10
2023-03-13T11:05:22.774Z,10
2023-03-13T11:06:22.492Z,15
2023-03-13T11:07:22.614Z,20
2023-03-13T11:08:22.686Z,20
2023-03-13T11:09:22.509Z,15
2023-03-13T11:10:22.661Z,15
2023-03-13T11:11:22.502Z,20
2023-03-13T11:12:22.699Z,20
2023-03-13T11:13:40.848Z,20
2023-03-13T11:14:22.530Z,20
2023-03-13T11:15:22.801Z,20
2023-03-13T11:16:23.147Z,20
2023-03-13T11:17:22.599Z,20
2023-03-13T11:18:22.570Z,20
2023-03-13T11:19:25.687Z,20
2023-03-13T11:20:22.707Z,20
2023-03-13T11:21:27.603Z,20
2023-03-13T11:22:22.985Z,20
2023-03-13T11:23:22.591Z,20
2023-03-13T11:24:22.557Z,20
2023-03-13T11:25:25.707Z,20
2023-03-13T11:26:22.724Z,20
2023-03-13T11:27:22.775Z,20
2023-03-13T11:28:22.659Z,20
2023-03-13T11:29:22.921Z,15
2023-03-13T11:30:25.405Z,15
2023-03-13T11:31:23.028Z,15
2023-03-13T11:32:22.711Z,15
2023-03-13T11:33:22.556Z,15
2023-03-13T11:34:22.572Z,15
2023-03-13T11:35:25.465Z,10
2023-03-13T11:36:22.813Z,10
2023-03-13T11:37:22.534Z,10
2023-03-13T11:38:22.643Z,5
2023-03-13T11:39:22.631Z,5
2023-03-13T11:40:22.567Z,10
2023-03-13T11:41:26.670Z,10
2023-03-13T11:42:22.526Z,10
2023-03-13T11:43:34.117Z,5
2023-03-13T11:44:22.592Z,5
2023-03-13T11:45:22.685Z,5
2023-03-13T11:46:26.427Z,5
2023-03-13T11:47:22.639Z,5
2023-03-13T11:48:22.588Z,5
2023-03-13T11:49:22.565Z,5
2023-03-13T11:50:22.823Z,5
2023-03-13T11:51:25.566Z,5
2023-03-13T11:52:25.540Z,10
2023-03-13T11:53:23.562Z,10
2023-03-13T11:54:22.552Z,10
2023-03-13T11:55:22.656Z,10
2023-03-13T11:56:22.644Z,10
2023-03-13T11:57:25.397Z,10
2023-03-13T11:58:22.609Z,15
2023-03-13T11:59:22.641Z,15
2023-03-13T12:00:22.618Z,20
2023-03-13T12:01:22.931Z,20
2023-03-13T12:02:23.038Z,20
2023-03-13T12:03:25.829Z,20
2023-03-13T12:04:22.638Z,20
2023-03-13T12:05:22.999Z,15
2023-03-13T12:06:38.635Z,15
2023-03-13T12:07:22.601Z,15
2023-03-13T12:08:25.582Z,15
2023-03-13T12:09:22.579Z,20
2023-03-13T12:10:22.874Z,20
2023-03-13T12:11:22.701Z,20
2023-03-13T12:12:22.599Z,20
2023-03-13T12:13:22.627Z,20
2023-03-13T12:14:25.793Z,25
2023-03-13T12:15:25.786Z,45
2023-03-13T12:16:23.123Z,25
2023-03-13T12:17:22.905Z,25
2023-03-13T12:18:22.703Z,25
2023-03-13T12:19:25.774Z,25
2023-03-13T12:20:22.686Z,20
2023-03-13T12:21:22.639Z,20
2023-03-13T12:22:22.804Z,20
2023-03-13T12:23:22.510Z,20
2023-03-13T12:24:22.619Z,20
2023-03-13T12:25:25.636Z,20
2023-03-13T12:26:22.607Z,20
2023-03-13T12:27:22.665Z,20
2023-03-13T12:28:26.178Z,20
2023-03-13T12:29:22.654Z,20
2023-03-13T12:30:25.637Z,20
2023-03-13T12:31:23.185Z,15
2023-03-13T12:32:22.787Z,15
2023-03-13T12:33:25.153Z,15
2023-03-13T12:34:22.653Z,20
2023-03-13T12:35:22.697Z,45
2023-03-13T12:36:25.832Z,55
2023-03-13T12:37:22.695Z,55
2023-03-13T12:38:22.782Z,55
2023-03-13T12:39:22.648Z,55
2023-03-13T12:40:22.691Z,50
2023-03-13T12:41:25.748Z,50
2023-03-13T12:42:22.646Z,50
2023-03-13T12:43:22.681Z,50
2023-03-13T12:44:22.695Z,50
2023-03-13T12:45:23.016Z,50
2023-03-13T12:46:23.132Z,50
2023-03-13T12:47:27.893Z,50
2023-03-13T12:48:23.294Z,50
2023-03-13T12:49:22.687Z,50
2023-03-13T12:50:23.765Z,50
2023-03-13T12:51:22.712Z,50
2023-03-13T12:52:25.505Z,50
2023-03-13T12:53:25.521Z,50
2023-03-13T12:54:23.114Z,50
2023-03-13T12:55:22.712Z,45
2023-03-13T12:56:22.974Z,45
2023-03-13T12:57:22.897Z,45
2023-03-13T12:58:25.358Z,45
2023-03-13T12:59:22.673Z,45
2023-03-13T13:00:22.781Z,45
2023-03-13T13:01:23.026Z,45
2023-03-13T13:02:22.787Z,40
2023-03-13T13:03:25.835Z,45
2023-03-13T13:04:23.211Z,50
2023-03-13T13:05:22.712Z,50
2023-03-13T13:06:22.842Z,50
2023-03-13T13:07:22.708Z,50
2023-03-13T13:08:24.148Z,45
2023-03-13T13:09:22.736Z,50
2023-03-13T13:10:22.819Z,20
2023-03-13T13:11:25.645Z,50
2023-03-13T13:12:22.758Z,50
2023-03-13T13:13:22.847Z,50
2023-03-13T13:14:25.818Z,20
2023-03-13T13:15:22.759Z,25
2023-03-13T13:16:23.223Z,50
2023-03-13T13:17:25.490Z,50
2023-03-13T13:18:22.605Z,40
2023-03-13T13:19:23.730Z,25
2023-03-13T13:20:22.749Z,40
2023-03-13T13:21:22.709Z,35
2023-03-13T13:22:22.938Z,35
2023-03-13T13:23:22.815Z,40
2023-03-13T13:24:22.743Z,35
2023-03-13T13:25:22.777Z,40
2023-03-13T13:26:22.782Z,45
2023-03-13T13:27:22.747Z,45
2023-03-13T13:28:22.776Z,45
2023-03-13T13:29:22.404Z,35
2023-03-13T13:30:25.423Z,45
2023-03-13T13:31:23.666Z,20
2023-03-13T13:32:23.369Z,45
2023-03-13T13:33:22.881Z,50
2023-03-13T13:34:22.676Z,45
2023-03-13T13:35:22.625Z,50
2023-03-13T13:36:22.865Z,50
2023-03-13T13:37:22.833Z,50
2023-03-13T13:38:22.846Z,50
2023-03-13T13:39:22.786Z,50
2023-03-13T13:40:23.256Z,50
2023-03-13T13:41:25.895Z,50
2023-03-13T13:42:22.801Z,50
2023-03-13T13:43:22.775Z,50
2023-03-13T13:44:22.839Z,50
2023-03-13T13:45:22.812Z,50
2023-03-13T13:46:26.225Z,50
2023-03-13T13:47:22.784Z,45
2023-03-13T13:48:22.819Z,40
2023-03-13T13:49:22.844Z,35
2023-03-13T13:50:22.817Z,35
2023-03-13T13:51:22.784Z,40
2023-03-13T13:52:22.833Z,35
2023-03-13T13:53:22.782Z,40
2023-03-13T13:54:22.900Z,40
2023-03-13T13:55:22.811Z,40
2023-03-13T13:56:22.793Z,30
2023-03-13T13:57:26.069Z,30
2023-03-13T13:58:22.830Z,35
2023-03-13T13:59:22.871Z,30
2023-03-13T14:00:22.830Z,20
2023-03-13T14:01:23.089Z,20
2023-03-13T14:02:25.852Z,20
2023-03-13T14:03:22.886Z,20
2023-03-13T14:04:23.857Z,20
2023-03-13T14:05:23.397Z,25
2023-03-13T14:06:22.921Z,25
2023-03-13T14:07:22.832Z,20
2023-03-13T14:08:26.777Z,20
2023-03-13T14:09:22.842Z,20
2023-03-13T14:10:22.838Z,20
2023-03-13T14:11:22.815Z,20
2023-03-13T14:12:22.913Z,25
2023-03-13T14:13:25.669Z,25
2023-03-13T14:14:22.885Z,30
2023-03-13T14:15:22.845Z,30
2023-03-13T14:16:26.569Z,25
2023-03-13T14:17:22.845Z,20
2023-03-13T14:18:25.793Z,20
2023-03-13T14:19:23.890Z,20
2023-03-13T14:20:22.867Z,20
2023-03-13T14:21:22.888Z,20
2023-03-13T14:22:23.012Z,20
2023-03-13T14:23:22.857Z,20
2023-03-13T14:24:25.873Z,20
2023-03-13T14:25:22.859Z,15
2023-03-13T14:26:23.041Z,15
2023-03-13T14:27:22.874Z,15
2023-03-13T14:28:22.905Z,15
2023-03-13T14:29:22.964Z,15
2023-03-13T14:30:25.751Z,15
2023-03-13T14:31:23.212Z,15
2023-03-13T14:32:23.025Z,10
2023-03-13T14:33:22.994Z,10
2023-03-13T14:34:22.955Z,10
2023-03-13T14:35:26.012Z,10
2023-03-13T14:36:23.966Z,10